sensor_id;sensor_type;location;lat;lon;timestamp;temperature;humidity
47162;DHT22;32921;53.256;8.198;2022-10-26T00:00:27;8.30;99.90
47162;DHT22;32921;53.256;8.198;2022-10-26T00:02:56;8.20;99.90
47162;DHT22;32921;53.256;8.198;2022-10-26T00:05:22;8.10;99.90
47162;DHT22;32921;53.256;8.198;2022-10-26T00:07:49;8.10;99.90
47162;DHT22;32921;53.256;8.198;2022-10-26T00:10:15;8.00;99.90
47162;DHT22;32921;53.256;8.198;2022-10-26T00:12:41;7.90;99.90
47162;DHT22;32921;53.256;8.198;2022-10-26T00:15:07;7.90;99.90
47162;DHT22;32921;53.256;8.198;2022-10-26T00:17:33;8.00;99.90
47162;DHT22;32921;53.256;8.198;2022-10-26T00:19:59;8.00;99.90
47162;DHT22;32921;53.256;8.198;2022-10-26T00:22:25;8.10;99.90
47162;DHT22;32921;53.256;8.198;2022-10-26T00:24:51;8.20;99.90
47162;DHT22;32921;53.256;8.198;2022-10-26T00:27:17;8.60;99.90
47162;DHT22;32921;53.256;8.198;2022-10-26T00:29:42;8.70;99.90
47162;DHT22;32921;53.256;8.198;2022-10-26T00:32:08;8.80;99.90
47162;DHT22;32921;53.256;8.198;2022-10-26T00:34:34;9.00;99.90
47162;DHT22;32921;53.256;8.198;2022-10-26T00:37:01;9.00;99.90
47162;DHT22;32921;53.256;8.198;2022-10-26T00:39:27;8.90;99.90
47162;DHT22;32921;53.256;8.198;2022-10-26T00:41:52;8.90;99.90
47162;DHT22;32921;53.256;8.198;2022-10-26T00:44:59;9.00;99.90
47162;DHT22;32921;53.256;8.198;2022-10-26T00:47:39;9.10;99.90
47162;DHT22;32921;53.256;8.198;2022-10-26T00:50:35;9.20;99.90
47162;DHT22;32921;53.256;8.198;2022-10-26T00:53:05;9.40;99.90
47162;DHT22;32921;53.256;8.198;2022-10-26T00:55:44;9.50;99.90
47162;DHT22;32921;53.256;8.198;2022-10-26T00:58:10;9.50;99.90
47162;DHT22;32921;53.256;8.198;2022-10-26T01:00:37;9.50;99.90
47162;DHT22;32921;53.256;8.198;2022-10-26T01:03:07;9.40;99.90
47162;DHT22;32921;53.256;8.198;2022-10-26T01:05:35;9.50;99.90
47162;DHT22;32921;53.256;8.198;2022-10-26T01:08:02;9.60;99.90
47162;DHT22;32921;53.256;8.198;2022-10-26T01:10:28;9.60;99.90
47162;DHT22;32921;53.256;8.198;2022-10-26T01:12:54;9.70;99.90
47162;DHT22;32921;53.256;8.198;2022-10-26T01:27:04;9.70;99.90
47162;DHT22;32921;53.256;8.198;2022-10-26T01:38:15;9.60;99.90
47162;DHT22;32921;53.256;8.198;2022-10-26T01:43:16;9.50;99.90
47162;DHT22;32921;53.256;8.198;2022-10-26T01:45:45;9.70;99.90
47162;DHT22;32921;53.256;8.198;2022-10-26T01:48:16;9.60;99.90
47162;DHT22;32921;53.256;8.198;2022-10-26T01:50:47;9.50;99.90
47162;DHT22;32921;53.256;8.198;2022-10-26T01:53:14;9.50;99.90
47162;DHT22;32921;53.256;8.198;2022-10-26T01:55:48;9.40;99.90
47162;DHT22;32921;53.256;8.198;2022-10-26T02:01:23;9.30;99.90
47162;DHT22;32921;53.256;8.198;2022-10-26T02:04:18;9.40;99.90
47162;DHT22;32921;53.256;8.198;2022-10-26T02:09:59;9.40;99.90
47162;DHT22;32921;53.256;8.198;2022-10-26T02:12:34;9.40;99.90
47162;DHT22;32921;53.256;8.198;2022-10-26T02:15:11;9.30;99.90
47162;DHT22;32921;53.256;8.198;2022-10-26T02:17:52;9.50;99.90
47162;DHT22;32921;53.256;8.198;2022-10-26T02:20:26;9.50;99.90
47162;DHT22;32921;53.256;8.198;2022-10-26T02:22:55;9.60;99.90
47162;DHT22;32921;53.256;8.198;2022-10-26T02:25:31;9.40;99.90
47162;DHT22;32921;53.256;8.198;2022-10-26T02:28:09;9.40;99.90
47162;DHT22;32921;53.256;8.198;2022-10-26T02:30:38;9.50;99.90
47162;DHT22;32921;53.256;8.198;2022-10-26T02:33:07;9.50;99.90
47162;DHT22;32921;53.256;8.198;2022-10-26T02:35:36;9.40;99.90
47162;DHT22;32921;53.256;8.198;2022-10-26T02:38:06;9.30;99.90
47162;DHT22;32921;53.256;8.198;2022-10-26T02:40:33;9.40;99.90
47162;DHT22;32921;53.256;8.198;2022-10-26T02:43:06;9.50;99.90
47162;DHT22;32921;53.256;8.198;2022-10-26T02:45:37;9.50;99.90
47162;DHT22;32921;53.256;8.198;2022-10-26T02:48:03;9.80;99.90
47162;DHT22;32921;53.256;8.198;2022-10-26T02:53:24;9.60;99.90
47162;DHT22;32921;53.256;8.198;2022-10-26T02:55:52;9.70;99.90
47162;DHT22;32921;53.256;8.198;2022-10-26T02:58:28;9.80;99.90
47162;DHT22;32921;53.256;8.198;2022-10-26T03:00:55;9.70;99.90
47162;DHT22;32921;53.256;8.198;2022-10-26T03:03:21;9.70;99.90
47162;DHT22;32921;53.256;8.198;2022-10-26T03:05:47;9.90;99.90
47162;DHT22;32921;53.256;8.198;2022-10-26T03:08:12;9.90;99.90
47162;DHT22;32921;53.256;8.198;2022-10-26T03:10:41;9.70;99.90
47162;DHT22;32921;53.256;8.198;2022-10-26T03:13:07;9.60;99.90
47162;DHT22;32921;53.256;8.198;2022-10-26T03:15:33;9.80;99.90
47162;DHT22;32921;53.256;8.198;2022-10-26T03:17:58;9.80;99.90
47162;DHT22;32921;53.256;8.198;2022-10-26T03:20:24;9.80;99.90
47162;DHT22;32921;53.256;8.198;2022-10-26T03:22:49;9.80;99.90
47162;DHT22;32921;53.256;8.198;2022-10-26T03:25:15;9.60;99.90
47162;DHT22;32921;53.256;8.198;2022-10-26T03:27:41;9.50;99.90
47162;DHT22;32921;53.256;8.198;2022-10-26T03:30:07;9.30;99.90
47162;DHT22;32921;53.256;8.198;2022-10-26T03:32:39;9.20;99.90
47162;DHT22;32921;53.256;8.198;2022-10-26T03:35:05;9.10;99.90
47162;DHT22;32921;53.256;8.198;2022-10-26T03:37:31;9.30;99.90
47162;DHT22;32921;53.256;8.198;2022-10-26T03:39:56;9.20;99.90
47162;DHT22;32921;53.256;8.198;2022-10-26T03:42:22;9.40;99.90
47162;DHT22;32921;53.256;8.198;2022-10-26T03:44:47;9.40;99.90
47162;DHT22;32921;53.256;8.198;2022-10-26T03:47:13;9.40;99.90
47162;DHT22;32921;53.256;8.198;2022-10-26T03:49:39;9.40;99.90
47162;DHT22;32921;53.256;8.198;2022-10-26T03:52:04;9.40;99.90
47162;DHT22;32921;53.256;8.198;2022-10-26T03:54:30;9.30;99.90
47162;DHT22;32921;53.256;8.198;2022-10-26T03:56:55;9.30;99.90
47162;DHT22;32921;53.256;8.198;2022-10-26T03:59:21;9.20;99.90
47162;DHT22;32921;53.256;8.198;2022-10-26T04:01:46;9.20;99.90
47162;DHT22;32921;53.256;8.198;2022-10-26T04:04:12;9.00;99.90
47162;DHT22;32921;53.256;8.198;2022-10-26T04:06:37;9.00;99.90
47162;DHT22;32921;53.256;8.198;2022-10-26T04:09:03;8.90;99.90
47162;DHT22;32921;53.256;8.198;2022-10-26T04:11:29;8.90;99.90
47162;DHT22;32921;53.256;8.198;2022-10-26T04:14:00;8.80;99.90
47162;DHT22;32921;53.256;8.198;2022-10-26T04:16:26;8.80;99.90
47162;DHT22;32921;53.256;8.198;2022-10-26T04:18:51;8.70;99.90
47162;DHT22;32921;53.256;8.198;2022-10-26T04:21:20;8.60;99.90
47162;DHT22;32921;53.256;8.198;2022-10-26T04:23:45;8.50;99.90
47162;DHT22;32921;53.256;8.198;2022-10-26T04:26:11;8.50;99.90
47162;DHT22;32921;53.256;8.198;2022-10-26T04:28:36;8.40;99.90
47162;DHT22;32921;53.256;8.198;2022-10-26T04:31:02;8.30;99.90
47162;DHT22;32921;53.256;8.198;2022-10-26T04:33:27;8.30;99.90
47162;DHT22;32921;53.256;8.198;2022-10-26T04:36:00;8.10;99.90
47162;DHT22;32921;53.256;8.198;2022-10-26T04:38:26;8.00;99.90
47162;DHT22;32921;53.256;8.198;2022-10-26T04:40:51;8.00;99.90
47162;DHT22;32921;53.256;8.198;2022-10-26T04:43:24;8.00;99.90
47162;DHT22;32921;53.256;8.198;2022-10-26T04:45:49;7.90;99.90
47162;DHT22;32921;53.256;8.198;2022-10-26T04:48:18;7.80;99.90
47162;DHT22;32921;53.256;8.198;2022-10-26T04:50:44;7.90;99.90
47162;DHT22;32921;53.256;8.198;2022-10-26T04:53:11;7.80;99.90
47162;DHT22;32921;53.256;8.198;2022-10-26T04:55:37;7.80;99.90
47162;DHT22;32921;53.256;8.198;2022-10-26T04:58:03;7.70;99.90
47162;DHT22;32921;53.256;8.198;2022-10-26T05:00:29;7.40;99.90
47162;DHT22;32921;53.256;8.198;2022-10-26T05:03:05;7.30;99.90
47162;DHT22;32921;53.256;8.198;2022-10-26T05:05:32;7.10;99.90
47162;DHT22;32921;53.256;8.198;2022-10-26T05:07:58;7.10;99.90
47162;DHT22;32921;53.256;8.198;2022-10-26T05:10:24;7.00;99.90
47162;DHT22;32921;53.256;8.198;2022-10-26T05:12:54;7.00;99.90
47162;DHT22;32921;53.256;8.198;2022-10-26T05:15:20;7.00;99.90
47162;DHT22;32921;53.256;8.198;2022-10-26T05:17:46;7.20;99.90
47162;DHT22;32921;53.256;8.198;2022-10-26T05:20:12;7.10;99.90
47162;DHT22;32921;53.256;8.198;2022-10-26T05:22:41;7.10;99.90
47162;DHT22;32921;53.256;8.198;2022-10-26T05:25:07;7.20;99.90
47162;DHT22;32921;53.256;8.198;2022-10-26T05:27:32;7.10;99.90
47162;DHT22;32921;53.256;8.198;2022-10-26T05:29:58;7.10;99.90
47162;DHT22;32921;53.256;8.198;2022-10-26T05:32:23;7.30;99.90
47162;DHT22;32921;53.256;8.198;2022-10-26T05:34:49;7.40;99.90
47162;DHT22;32921;53.256;8.198;2022-10-26T05:37:14;7.40;99.90
47162;DHT22;32921;53.256;8.198;2022-10-26T05:39:40;7.30;99.90
47162;DHT22;32921;53.256;8.198;2022-10-26T05:42:07;7.10;99.90
47162;DHT22;32921;53.256;8.198;2022-10-26T05:44:33;7.00;99.90
47162;DHT22;32921;53.256;8.198;2022-10-26T05:46:58;6.80;99.90
47162;DHT22;32921;53.256;8.198;2022-10-26T05:49:24;6.80;99.90
47162;DHT22;32921;53.256;8.198;2022-10-26T05:51:51;6.70;99.90
47162;DHT22;32921;53.256;8.198;2022-10-26T05:54:16;6.90;99.90
47162;DHT22;32921;53.256;8.198;2022-10-26T05:56:42;7.30;99.90
47162;DHT22;32921;53.256;8.198;2022-10-26T05:59:15;7.40;99.90
47162;DHT22;32921;53.256;8.198;2022-10-26T06:04:28;7.40;99.90
47162;DHT22;32921;53.256;8.198;2022-10-26T06:06:57;7.20;99.90
47162;DHT22;32921;53.256;8.198;2022-10-26T06:09:23;7.00;99.90
47162;DHT22;32921;53.256;8.198;2022-10-26T06:11:49;7.00;99.90
47162;DHT22;32921;53.256;8.198;2022-10-26T06:14:15;6.80;99.90
47162;DHT22;32921;53.256;8.198;2022-10-26T06:20:11;7.00;99.90
47162;DHT22;32921;53.256;8.198;2022-10-26T06:25:27;7.00;99.90
47162;DHT22;32921;53.256;8.198;2022-10-26T06:30:47;6.90;99.90
47162;DHT22;32921;53.256;8.198;2022-10-26T06:33:13;7.10;99.90
47162;DHT22;32921;53.256;8.198;2022-10-26T06:38:17;7.40;99.90
47162;DHT22;32921;53.256;8.198;2022-10-26T06:40:47;7.30;99.90
47162;DHT22;32921;53.256;8.198;2022-10-26T13:28:47;18.50;99.90
47162;DHT22;32921;53.256;8.198;2022-10-26T13:33:45;18.50;99.90
47162;DHT22;32921;53.256;8.198;2022-10-26T13:37:24;18.50;99.90
47162;DHT22;32921;53.256;8.198;2022-10-26T13:39:34;18.40;99.90
47162;DHT22;32921;53.256;8.198;2022-10-26T13:44:56;18.50;99.90
47162;DHT22;32921;53.256;8.198;2022-10-26T13:50:19;18.50;99.90
47162;DHT22;32921;53.256;8.198;2022-10-26T13:52:49;18.50;99.90
47162;DHT22;32921;53.256;8.198;2022-10-26T13:55:31;18.50;99.90
47162;DHT22;32921;53.256;8.198;2022-10-26T14:03:34;18.50;99.90
47162;DHT22;32921;53.256;8.198;2022-10-26T14:06:04;18.50;99.90
47162;DHT22;32921;53.256;8.198;2022-10-26T14:08:29;18.50;99.90
47162;DHT22;32921;53.256;8.198;2022-10-26T14:10:57;18.50;99.90
47162;DHT22;32921;53.256;8.198;2022-10-26T14:13:25;18.40;99.90
47162;DHT22;32921;53.256;8.198;2022-10-26T14:25:52;18.60;99.90
47162;DHT22;32921;53.256;8.198;2022-10-26T14:28:29;18.60;99.90
47162;DHT22;32921;53.256;8.198;2022-10-26T14:31:12;18.60;99.90
47162;DHT22;32921;53.256;8.198;2022-10-26T14:33:38;18.60;99.90
47162;DHT22;32921;53.256;8.198;2022-10-26T14:36:04;18.70;99.90
47162;DHT22;32921;53.256;8.198;2022-10-26T14:38:35;18.70;99.90
47162;DHT22;32921;53.256;8.198;2022-10-26T14:41:03;18.80;99.90
47162;DHT22;32921;53.256;8.198;2022-10-26T14:43:28;18.80;99.90
47162;DHT22;32921;53.256;8.198;2022-10-26T14:45:55;18.70;99.90
47162;DHT22;32921;53.256;8.198;2022-10-26T14:48:30;18.60;99.90
47162;DHT22;32921;53.256;8.198;2022-10-26T14:51:09;18.60;99.90
47162;DHT22;32921;53.256;8.198;2022-10-26T14:53:39;19.00;99.90
47162;DHT22;32921;53.256;8.198;2022-10-26T14:56:30;19.50;99.90
47162;DHT22;32921;53.256;8.198;2022-10-26T14:59:19;19.50;99.90
47162;DHT22;32921;53.256;8.198;2022-10-26T15:01:58;19.40;99.90
47162;DHT22;32921;53.256;8.198;2022-10-26T15:04:40;19.40;99.90
47162;DHT22;32921;53.256;8.198;2022-10-26T15:07:07;19.20;99.90
47162;DHT22;32921;53.256;8.198;2022-10-26T15:09:46;18.80;99.90
47162;DHT22;32921;53.256;8.198;2022-10-26T15:12:31;18.60;99.90
47162;DHT22;32921;53.256;8.198;2022-10-26T15:15:21;18.30;99.90
47162;DHT22;32921;53.256;8.198;2022-10-26T15:17:53;18.10;99.90
47162;DHT22;32921;53.256;8.198;2022-10-26T15:20:27;17.90;99.90
47162;DHT22;32921;53.256;8.198;2022-10-26T15:22:58;17.80;99.90
47162;DHT22;32921;53.256;8.198;2022-10-26T15:25:32;17.70;99.90
47162;DHT22;32921;53.256;8.198;2022-10-26T15:28:30;17.50;99.90
47162;DHT22;32921;53.256;8.198;2022-10-26T15:33:38;17.30;99.90
47162;DHT22;32921;53.256;8.198;2022-10-26T15:38:36;17.00;99.90
47162;DHT22;32921;53.256;8.198;2022-10-26T15:41:12;16.90;99.90
47162;DHT22;32921;53.256;8.198;2022-10-26T15:43:38;16.70;99.90
47162;DHT22;32921;53.256;8.198;2022-10-26T15:46:03;16.60;99.90
47162;DHT22;32921;53.256;8.198;2022-10-26T15:48:30;16.40;99.90
47162;DHT22;32921;53.256;8.198;2022-10-26T15:50:57;16.30;99.90
47162;DHT22;32921;53.256;8.198;2022-10-26T15:53:24;16.20;99.90
47162;DHT22;32921;53.256;8.198;2022-10-26T15:55:55;16.10;99.90
47162;DHT22;32921;53.256;8.198;2022-10-26T15:58:22;16.00;99.90
47162;DHT22;32921;53.256;8.198;2022-10-26T16:00:48;15.90;99.90
47162;DHT22;32921;53.256;8.198;2022-10-26T16:03:19;15.90;99.90
47162;DHT22;32921;53.256;8.198;2022-10-26T16:05:46;15.90;99.90
47162;DHT22;32921;53.256;8.198;2022-10-26T16:08:14;16.10;99.90
47162;DHT22;32921;53.256;8.198;2022-10-26T16:10:41;16.20;99.90
47162;DHT22;32921;53.256;8.198;2022-10-26T16:13:12;16.30;99.90
47162;DHT22;32921;53.256;8.198;2022-10-26T16:15:38;16.10;99.90
47162;DHT22;32921;53.256;8.198;2022-10-26T16:18:04;16.00;99.90
47162;DHT22;32921;53.256;8.198;2022-10-26T16:20:29;15.80;99.90
47162;DHT22;32921;53.256;8.198;2022-10-26T16:22:55;15.80;99.90
47162;DHT22;32921;53.256;8.198;2022-10-26T16:25:23;15.60;99.90
47162;DHT22;32921;53.256;8.198;2022-10-26T16:27:50;15.50;99.90
47162;DHT22;32921;53.256;8.198;2022-10-26T16:30:16;15.30;99.90
47162;DHT22;32921;53.256;8.198;2022-10-26T16:32:42;15.30;99.90
47162;DHT22;32921;53.256;8.198;2022-10-26T16:35:09;15.10;99.90
47162;DHT22;32921;53.256;8.198;2022-10-26T16:37:34;15.00;99.90
47162;DHT22;32921;53.256;8.198;2022-10-26T16:40:00;14.90;99.90
47162;DHT22;32921;53.256;8.198;2022-10-26T16:42:25;14.90;99.90
47162;DHT22;32921;53.256;8.198;2022-10-26T16:44:53;14.80;99.90
47162;DHT22;32921;53.256;8.198;2022-10-26T16:47:18;14.80;99.90
47162;DHT22;32921;53.256;8.198;2022-10-26T16:49:44;14.70;99.90
47162;DHT22;32921;53.256;8.198;2022-10-26T16:52:10;14.70;99.90
47162;DHT22;32921;53.256;8.198;2022-10-26T16:54:35;14.60;99.90
47162;DHT22;32921;53.256;8.198;2022-10-26T16:57:01;14.50;99.90
47162;DHT22;32921;53.256;8.198;2022-10-26T16:59:27;14.50;99.90
47162;DHT22;32921;53.256;8.198;2022-10-26T17:01:53;14.40;99.90
47162;DHT22;32921;53.256;8.198;2022-10-26T17:04:18;14.40;99.90
47162;DHT22;32921;53.256;8.198;2022-10-26T17:06:44;14.20;99.90
47162;DHT22;32921;53.256;8.198;2022-10-26T17:09:09;14.30;99.90
47162;DHT22;32921;53.256;8.198;2022-10-26T17:11:35;14.30;99.90
47162;DHT22;32921;53.256;8.198;2022-10-26T17:14:00;14.30;99.90
47162;DHT22;32921;53.256;8.198;2022-10-26T17:16:26;14.30;99.90
47162;DHT22;32921;53.256;8.198;2022-10-26T17:18:52;14.20;99.90
47162;DHT22;32921;53.256;8.198;2022-10-26T17:21:26;14.30;99.90
47162;DHT22;32921;53.256;8.198;2022-10-26T17:23:52;14.40;99.90
47162;DHT22;32921;53.256;8.198;2022-10-26T17:26:18;14.50;99.90
47162;DHT22;32921;53.256;8.198;2022-10-26T17:28:43;14.60;99.90
47162;DHT22;32921;53.256;8.198;2022-10-26T17:31:12;14.60;99.90
47162;DHT22;32921;53.256;8.198;2022-10-26T17:33:39;14.60;99.90
47162;DHT22;32921;53.256;8.198;2022-10-26T17:36:08;14.60;99.90
47162;DHT22;32921;53.256;8.198;2022-10-26T17:38:36;14.50;99.90
47162;DHT22;32921;53.256;8.198;2022-10-26T17:41:04;14.60;99.90
47162;DHT22;32921;53.256;8.198;2022-10-26T17:43:31;14.60;99.90
47162;DHT22;32921;53.256;8.198;2022-10-26T17:46:02;14.60;99.90
47162;DHT22;32921;53.256;8.198;2022-10-26T17:48:29;14.60;99.90
47162;DHT22;32921;53.256;8.198;2022-10-26T17:50:57;14.40;99.90
47162;DHT22;32921;53.256;8.198;2022-10-26T17:53:23;14.40;99.90
47162;DHT22;32921;53.256;8.198;2022-10-26T17:55:48;14.40;99.90
47162;DHT22;32921;53.256;8.198;2022-10-26T17:58:14;14.30;99.90
47162;DHT22;32921;53.256;8.198;2022-10-26T18:00:40;14.30;99.90
47162;DHT22;32921;53.256;8.198;2022-10-26T18:03:05;14.20;99.90
47162;DHT22;32921;53.256;8.198;2022-10-26T18:05:32;14.30;99.90
47162;DHT22;32921;53.256;8.198;2022-10-26T18:07:58;14.20;99.90
47162;DHT22;32921;53.256;8.198;2022-10-26T18:10:24;14.20;99.90
47162;DHT22;32921;53.256;8.198;2022-10-26T18:12:49;14.20;99.90
47162;DHT22;32921;53.256;8.198;2022-10-26T18:15:15;14.20;99.90
47162;DHT22;32921;53.256;8.198;2022-10-26T18:17:41;14.20;99.90
47162;DHT22;32921;53.256;8.198;2022-10-26T18:20:07;14.10;99.90
47162;DHT22;32921;53.256;8.198;2022-10-26T18:22:33;14.10;99.90
47162;DHT22;32921;53.256;8.198;2022-10-26T18:24:59;14.10;99.90
47162;DHT22;32921;53.256;8.198;2022-10-26T18:27:25;14.10;99.90
47162;DHT22;32921;53.256;8.198;2022-10-26T18:29:50;14.10;99.90
47162;DHT22;32921;53.256;8.198;2022-10-26T18:32:16;14.10;99.90
47162;DHT22;32921;53.256;8.198;2022-10-26T18:34:42;14.00;99.90
47162;DHT22;32921;53.256;8.198;2022-10-26T18:37:07;14.00;99.90
47162;DHT22;32921;53.256;8.198;2022-10-26T18:39:33;14.00;99.90
47162;DHT22;32921;53.256;8.198;2022-10-26T18:41:58;14.00;99.90
47162;DHT22;32921;53.256;8.198;2022-10-26T18:44:24;13.90;99.90
47162;DHT22;32921;53.256;8.198;2022-10-26T18:46:49;13.90;99.90
47162;DHT22;32921;53.256;8.198;2022-10-26T18:49:17;13.80;99.90
47162;DHT22;32921;53.256;8.198;2022-10-26T18:51:45;13.70;99.90
47162;DHT22;32921;53.256;8.198;2022-10-26T18:54:11;13.70;99.90
47162;DHT22;32921;53.256;8.198;2022-10-26T18:56:36;13.60;99.90
47162;DHT22;32921;53.256;8.198;2022-10-26T18:59:02;13.70;99.90
47162;DHT22;32921;53.256;8.198;2022-10-26T19:01:30;13.70;99.90
47162;DHT22;32921;53.256;8.198;2022-10-26T19:04:16;13.70;99.90
47162;DHT22;32921;53.256;8.198;2022-10-26T19:06:43;13.60;99.90
47162;DHT22;32921;53.256;8.198;2022-10-26T19:09:11;13.60;99.90
47162;DHT22;32921;53.256;8.198;2022-10-26T19:11:36;13.70;99.90
47162;DHT22;32921;53.256;8.198;2022-10-26T19:14:02;13.70;99.90
47162;DHT22;32921;53.256;8.198;2022-10-26T19:16:30;13.60;99.90
47162;DHT22;32921;53.256;8.198;2022-10-26T19:18:57;13.60;99.90
47162;DHT22;32921;53.256;8.198;2022-10-26T19:21:24;13.70;99.90
47162;DHT22;32921;53.256;8.198;2022-10-26T19:23:53;13.60;99.90
47162;DHT22;32921;53.256;8.198;2022-10-26T19:26:25;13.60;99.90
47162;DHT22;32921;53.256;8.198;2022-10-26T19:28:55;13.60;99.90
47162;DHT22;32921;53.256;8.198;2022-10-26T19:31:22;13.70;99.90
47162;DHT22;32921;53.256;8.198;2022-10-26T19:33:48;13.70;99.90
47162;DHT22;32921;53.256;8.198;2022-10-26T19:36:13;13.70;99.90
47162;DHT22;32921;53.256;8.198;2022-10-26T19:38:39;13.70;99.90
47162;DHT22;32921;53.256;8.198;2022-10-26T19:41:10;13.60;99.90
47162;DHT22;32921;53.256;8.198;2022-10-26T19:43:37;13.70;99.90
47162;DHT22;32921;53.256;8.198;2022-10-26T19:46:08;13.80;99.90
47162;DHT22;32921;53.256;8.198;2022-10-26T19:48:35;13.80;99.90
47162;DHT22;32921;53.256;8.198;2022-10-26T19:51:00;13.80;99.90
47162;DHT22;32921;53.256;8.198;2022-10-26T19:53:26;13.80;99.90
47162;DHT22;32921;53.256;8.198;2022-10-26T19:55:56;13.90;99.90
47162;DHT22;32921;53.256;8.198;2022-10-26T19:58:23;13.80;99.90
47162;DHT22;32921;53.256;8.198;2022-10-26T20:00:49;13.70;99.90
47162;DHT22;32921;53.256;8.198;2022-10-26T20:03:16;13.70;99.90
47162;DHT22;32921;53.256;8.198;2022-10-26T20:05:42;13.70;99.90
47162;DHT22;32921;53.256;8.198;2022-10-26T20:08:09;13.70;99.90
47162;DHT22;32921;53.256;8.198;2022-10-26T20:10:40;13.70;99.90
47162;DHT22;32921;53.256;8.198;2022-10-26T20:13:06;13.70;99.90
47162;DHT22;32921;53.256;8.198;2022-10-26T20:15:32;13.80;99.90
47162;DHT22;32921;53.256;8.198;2022-10-26T20:17:57;13.80;99.90
47162;DHT22;32921;53.256;8.198;2022-10-26T20:20:23;13.70;99.90
47162;DHT22;32921;53.256;8.198;2022-10-26T20:22:49;13.70;99.90
47162;DHT22;32921;53.256;8.198;2022-10-26T20:25:14;13.70;99.90
47162;DHT22;32921;53.256;8.198;2022-10-26T20:27:40;13.60;99.90
47162;DHT22;32921;53.256;8.198;2022-10-26T20:30:08;13.60;99.90
47162;DHT22;32921;53.256;8.198;2022-10-26T20:32:33;13.60;99.90
47162;DHT22;32921;53.256;8.198;2022-10-26T20:34:59;13.60;99.90
47162;DHT22;32921;53.256;8.198;2022-10-26T20:37:25;13.40;99.90
47162;DHT22;32921;53.256;8.198;2022-10-26T20:39:51;13.40;99.90
47162;DHT22;32921;53.256;8.198;2022-10-26T20:42:22;13.50;99.90
47162;DHT22;32921;53.256;8.198;2022-10-26T20:44:52;13.40;99.90
47162;DHT22;32921;53.256;8.198;2022-10-26T20:47:18;13.30;99.90
47162;DHT22;32921;53.256;8.198;2022-10-26T20:49:44;13.30;99.90
47162;DHT22;32921;53.256;8.198;2022-10-26T20:52:20;13.40;99.90
47162;DHT22;32921;53.256;8.198;2022-10-26T20:54:51;13.40;99.90
47162;DHT22;32921;53.256;8.198;2022-10-26T20:57:21;13.40;99.90
47162;DHT22;32921;53.256;8.198;2022-10-26T20:59:50;13.40;99.90
47162;DHT22;32921;53.256;8.198;2022-10-26T21:02:18;13.50;99.90
47162;DHT22;32921;53.256;8.198;2022-10-26T21:04:45;13.40;99.90
47162;DHT22;32921;53.256;8.198;2022-10-26T21:07:10;13.50;99.90
47162;DHT22;32921;53.256;8.198;2022-10-26T21:09:36;13.50;99.90
47162;DHT22;32921;53.256;8.198;2022-10-26T21:12:02;13.50;99.90
47162;DHT22;32921;53.256;8.198;2022-10-26T21:14:28;13.40;99.90
47162;DHT22;32921;53.256;8.198;2022-10-26T21:16:54;13.50;99.90
47162;DHT22;32921;53.256;8.198;2022-10-26T21:19:20;13.50;99.90
47162;DHT22;32921;53.256;8.198;2022-10-26T21:21:45;13.50;99.90
47162;DHT22;32921;53.256;8.198;2022-10-26T21:24:11;13.50;99.90
47162;DHT22;32921;53.256;8.198;2022-10-26T21:26:36;13.50;99.90
47162;DHT22;32921;53.256;8.198;2022-10-26T21:29:02;13.40;99.90
47162;DHT22;32921;53.256;8.198;2022-10-26T21:31:28;13.50;99.90
47162;DHT22;32921;53.256;8.198;2022-10-26T21:33:55;13.50;99.90
47162;DHT22;32921;53.256;8.198;2022-10-26T21:36:20;13.60;99.90
47162;DHT22;32921;53.256;8.198;2022-10-26T21:38:46;13.60;99.90
47162;DHT22;32921;53.256;8.198;2022-10-26T21:41:17;13.50;99.90
47162;DHT22;32921;53.256;8.198;2022-10-26T21:43:45;13.50;99.90
47162;DHT22;32921;53.256;8.198;2022-10-26T21:46:12;13.50;99.90
47162;DHT22;32921;53.256;8.198;2022-10-26T21:48:38;13.50;99.90
47162;DHT22;32921;53.256;8.198;2022-10-26T21:51:10;13.40;99.90
47162;DHT22;32921;53.256;8.198;2022-10-26T21:53:36;13.50;99.90
47162;DHT22;32921;53.256;8.198;2022-10-26T21:56:04;13.50;99.90
47162;DHT22;32921;53.256;8.198;2022-10-26T21:58:30;13.60;99.90
47162;DHT22;32921;53.256;8.198;2022-10-26T22:01:04;13.50;99.90
47162;DHT22;32921;53.256;8.198;2022-10-26T22:03:30;13.60;99.90
47162;DHT22;32921;53.256;8.198;2022-10-26T22:05:55;13.60;99.90
47162;DHT22;32921;53.256;8.198;2022-10-26T22:08:28;13.60;99.90
47162;DHT22;32921;53.256;8.198;2022-10-26T22:10:55;13.50;99.90
47162;DHT22;32921;53.256;8.198;2022-10-26T22:13:21;13.40;99.90
47162;DHT22;32921;53.256;8.198;2022-10-26T22:15:46;13.40;99.90
47162;DHT22;32921;53.256;8.198;2022-10-26T22:18:14;13.40;99.90
47162;DHT22;32921;53.256;8.198;2022-10-26T22:20:39;13.40;99.90
47162;DHT22;32921;53.256;8.198;2022-10-26T22:23:05;13.40;99.90
47162;DHT22;32921;53.256;8.198;2022-10-26T22:25:32;13.20;99.90
47162;DHT22;32921;53.256;8.198;2022-10-26T22:27:57;13.10;99.90
47162;DHT22;32921;53.256;8.198;2022-10-26T22:30:23;13.30;99.90
47162;DHT22;32921;53.256;8.198;2022-10-26T22:32:49;13.20;99.90
47162;DHT22;32921;53.256;8.198;2022-10-26T22:35:14;13.30;99.90
47162;DHT22;32921;53.256;8.198;2022-10-26T22:37:42;13.20;99.90
47162;DHT22;32921;53.256;8.198;2022-10-26T22:40:09;13.10;99.90
47162;DHT22;32921;53.256;8.198;2022-10-26T22:42:34;13.10;99.90
47162;DHT22;32921;53.256;8.198;2022-10-26T22:45:00;13.10;99.90
47162;DHT22;32921;53.256;8.198;2022-10-26T22:47:26;13.10;99.90
47162;DHT22;32921;53.256;8.198;2022-10-26T22:49:52;13.10;99.90
47162;DHT22;32921;53.256;8.198;2022-10-26T22:52:18;13.20;99.90
47162;DHT22;32921;53.256;8.198;2022-10-26T22:54:46;13.10;99.90
47162;DHT22;32921;53.256;8.198;2022-10-26T22:57:12;13.10;99.90
47162;DHT22;32921;53.256;8.198;2022-10-26T22:59:38;13.10;99.90
47162;DHT22;32921;53.256;8.198;2022-10-26T23:02:04;13.10;99.90
47162;DHT22;32921;53.256;8.198;2022-10-26T23:04:30;13.10;99.90
47162;DHT22;32921;53.256;8.198;2022-10-26T23:06:55;13.10;99.90
47162;DHT22;32921;53.256;8.198;2022-10-26T23:09:21;13.10;99.90
47162;DHT22;32921;53.256;8.198;2022-10-26T23:11:47;13.00;99.90
47162;DHT22;32921;53.256;8.198;2022-10-26T23:14:13;13.00;99.90
47162;DHT22;32921;53.256;8.198;2022-10-26T23:16:38;12.80;99.90
47162;DHT22;32921;53.256;8.198;2022-10-26T23:19:04;12.80;99.90
47162;DHT22;32921;53.256;8.198;2022-10-26T23:21:29;12.80;99.90
47162;DHT22;32921;53.256;8.198;2022-10-26T23:23:55;12.80;99.90
47162;DHT22;32921;53.256;8.198;2022-10-26T23:26:21;12.70;99.90
47162;DHT22;32921;53.256;8.198;2022-10-26T23:28:48;12.60;99.90
47162;DHT22;32921;53.256;8.198;2022-10-26T23:31:19;12.60;99.90
47162;DHT22;32921;53.256;8.198;2022-10-26T23:33:45;12.50;99.90
47162;DHT22;32921;53.256;8.198;2022-10-26T23:36:11;12.50;99.90
47162;DHT22;32921;53.256;8.198;2022-10-26T23:38:37;12.60;99.90
47162;DHT22;32921;53.256;8.198;2022-10-26T23:41:02;12.60;99.90
47162;DHT22;32921;53.256;8.198;2022-10-26T23:43:28;12.60;99.90